Time;durP1;ratioP1;P1;durP2;ratioP2;P2;SDS_P1;SDS_P2;PMS_P1;PMS_P2;Temp;Humidity;BMP_temperature;BMP_pressure;BME280_temperature;BME280_humidity;BME280_pressure;Samples;Min_cycle;Max_cycle;Signal;HPM_P1;HPM_P2
2021/05/26 00:00:31;;;;;;;4.90;2.75;;;;;;;16.82;100.00;100265.47;5032306;28;20056;-73
2021/05/26 00:02:57;;;;;;;4.07;2.70;;;;;;;16.96;100.00;100293.09;5031198;28;20488;-73
2021/05/26 00:05:23;;;;;;;4.07;2.20;;;;;;;16.78;100.00;100282.69;5032521;28;20029;-73
2021/05/26 00:07:48;;;;;;;10.32;2.92;;;;;;;16.87;100.00;100312.63;5032377;28;20033;-72
2021/05/26 00:10:15;;;;;;;5.15;2.70;;;;;;;16.93;100.00;100319.91;5032402;28;20022;-73
2021/05/26 00:12:40;;;;;;;5.20;3.30;;;;;;;16.88;100.00;100301.06;5031098;28;20116;-73
2021/05/26 00:15:07;;;;;;;6.65;2.60;;;;;;;16.82;100.00;100314.94;5032345;28;20109;-73
2021/05/26 00:17:33;;;;;;;9.23;3.05;;;;;;;16.62;100.00;100280.00;5032663;28;20025;-73
2021/05/26 00:19:59;;;;;;;6.40;2.67;;;;;;;16.58;100.00;100278.69;5032422;28;20032;-73
2021/05/26 00:22:25;;;;;;;6.57;2.88;;;;;;;16.91;100.00;100317.44;5032351;28;20495;-72
2021/05/26 00:24:51;;;;;;;5.18;2.78;;;;;;;16.80;100.00;100317.75;5032072;28;20053;-73
2021/05/26 00:27:17;;;;;;;4.88;2.92;;;;;;;16.79;100.00;100313.44;5032076;28;20087;-73
2021/05/26 00:29:43;;;;;;;7.03;2.72;;;;;;;16.83;100.00;100303.34;5031126;28;20057;-73
2021/05/26 00:32:08;;;;;;;8.65;3.10;;;;;;;16.58;100.00;100313.91;5032201;28;20025;-73
2021/05/26 00:34:34;;;;;;;10.18;3.30;;;;;;;16.44;100.00;100306.59;5032172;28;20132;-73
2021/05/26 00:36:59;;;;;;;8.10;3.22;;;;;;;16.37;100.00;100306.44;5031916;28;20030;-73
2021/05/26 00:39:25;;;;;;;6.05;2.88;;;;;;;16.11;100.00;100288.00;5032256;28;20080;-73
2021/05/26 00:41:50;;;;;;;6.43;3.03;;;;;;;16.02;100.00;100304.81;5032153;28;20401;-73
2021/05/26 00:44:16;;;;;;;4.90;2.80;;;;;;;15.88;100.00;100313.38;5031978;28;20072;-73
2021/05/26 00:46:43;;;;;;;8.82;3.47;;;;;;;15.89;100.00;100309.72;5032004;28;20033;-73
2021/05/26 00:49:09;;;;;;;6.80;2.70;;;;;;;16.01;100.00;100303.19;5030774;28;20087;-73
2021/05/26 00:51:35;;;;;;;5.13;2.80;;;;;;;15.84;100.00;100302.28;5031880;28;20396;-74
2021/05/26 00:54:00;;;;;;;7.80;3.30;;;;;;;15.66;100.00;100297.09;5031743;28;20036;-73
2021/05/26 00:56:26;;;;;;;4.72;2.75;;;;;;;15.78;100.00;100298.44;5032267;28;20179;-75
2021/05/26 00:58:52;;;;;;;5.53;3.05;;;;;;;15.64;100.00;100285.81;5031904;28;20033;-73
2021/05/26 01:01:19;;;;;;;5.15;3.00;;;;;;;15.77;100.00;100294.16;5030928;28;20022;-73
2021/05/26 01:03:45;;;;;;;7.93;3.15;;;;;;;15.69;100.00;100294.16;5030653;28;20486;-73
2021/05/26 01:06:10;;;;;;;6.35;3.10;;;;;;;15.57;100.00;100298.81;5030569;28;20385;-73
2021/05/26 01:08:36;;;;;;;6.13;3.22;;;;;;;15.29;100.00;100265.66;5031899;28;20119;-73
2021/05/26 01:11:05;;;;;;;4.40;2.75;;;;;;;15.40;100.00;100246.91;5031800;28;20017;-73
2021/05/26 01:13:31;;;;;;;9.07;2.90;;;;;;;15.30;100.00;100244.38;5030401;28;20041;-73
2021/05/26 01:15:57;;;;;;;5.35;2.90;;;;;;;15.28;100.00;100248.16;5031178;28;20032;-73
2021/05/26 01:18:34;;;;;;;7.82;3.13;;;;;;;15.29;100.00;100278.88;5031807;28;20121;-73
2021/05/26 01:21:04;;;;;;;6.25;3.25;;;;;;;15.28;100.00;100278.00;5030535;28;20033;-73
2021/05/26 01:23:30;;;;;;;7.45;3.10;;;;;;;15.18;100.00;100279.94;5030713;28;20397;-74
2021/05/26 01:25:57;;;;;;;6.95;3.75;;;;;;;14.78;100.00;100251.44;5032632;28;20061;-73
2021/05/26 01:28:25;;;;;;;11.18;3.65;;;;;;;14.72;100.00;100260.81;5034118;28;20440;-73
2021/05/26 01:30:51;;;;;;;7.30;3.42;;;;;;;14.94;100.00;100298.25;5033897;28;20025;-73
2021/05/26 01:33:18;;;;;;;5.90;2.83;;;;;;;14.75;100.00;100263.16;5035106;28;20499;-73
2021/05/26 01:35:45;;;;;;;6.50;2.80;;;;;;;14.76;100.00;100263.97;5035371;28;20034;-73
2021/05/26 01:38:19;;;;;;;6.40;3.25;;;;;;;14.98;100.00;100300.41;5033879;28;20107;-74
2021/05/26 01:40:46;;;;;;;6.03;3.03;;;;;;;14.99;100.00;100303.91;5034010;28;20040;-73
2021/05/26 01:43:12;;;;;;;8.50;3.15;;;;;;;14.81;100.00;100299.44;5033782;28;20053;-73
2021/05/26 01:45:37;;;;;;;6.80;3.10;;;;;;;14.68;100.00;100304.31;5034944;28;20473;-73
2021/05/26 01:48:04;;;;;;;10.18;3.38;;;;;;;14.58;100.00;100301.75;5035046;28;20033;-74
2021/05/26 01:50:30;;;;;;;11.15;3.33;;;;;;;14.71;100.00;100277.59;5033574;28;20385;-73
2021/05/26 01:53:13;;;;;;;4.38;2.72;;;;;;;15.09;100.00;100312.56;5034890;28;20083;-73
2021/05/26 01:55:40;;;;;;;7.60;2.78;;;;;;;15.27;100.00;100310.69;5033759;28;20072;-73
2021/05/26 01:58:06;;;;;;;9.07;2.80;;;;;;;15.06;100.00;100287.28;5033393;28;20053;-73
2021/05/26 02:00:32;;;;;;;7.32;2.80;;;;;;;15.17;100.00;100315.25;5035222;28;20108;-73
2021/05/26 02:02:57;;;;;;;11.18;3.40;;;;;;;15.06;100.00;100307.56;5033414;28;20084;-74
2021/05/26 02:05:23;;;;;;;15.13;3.40;;;;;;;14.92;100.00;100274.66;5034659;28;20021;-73
2021/05/26 02:07:49;;;;;;;5.30;3.00;;;;;;;15.08;100.00;100308.22;5034518;28;20413;-73
2021/05/26 02:10:16;;;;;;;7.00;2.80;;;;;;;14.83;100.00;100278.19;5034463;28;20507;-74
2021/05/26 02:12:44;;;;;;;9.00;3.38;;;;;;;14.87;100.00;100301.47;5033189;28;20026;-73
2021/05/26 02:15:12;;;;;;;8.02;3.50;;;;;;;14.78;100.00;100299.78;5033490;28;20030;-73
2021/05/26 02:17:38;;;;;;;9.23;3.78;;;;;;;14.56;100.00;100292.31;5034329;28;20038;-73
2021/05/26 02:20:06;;;;;;;8.52;3.72;;;;;;;14.56;100.00;100302.88;5034492;28;20037;-73
2021/05/26 02:22:33;;;;;;;7.05;3.80;;;;;;;14.49;100.00;100305.25;5034332;28;20033;-73
2021/05/26 02:24:59;;;;;;;7.03;3.75;;;;;;;14.64;100.00;100311.66;5032848;28;20042;-73
2021/05/26 02:27:25;;;;;;;9.93;2.78;;;;;;;14.69;100.00;100310.41;5032816;28;20033;-73
2021/05/26 02:29:50;;;;;;;8.95;2.97;;;;;;;14.67;100.00;100281.53;5034154;28;20116;-73
2021/05/26 02:32:16;;;;;;;5.18;3.20;;;;;;;14.66;100.00;100271.97;5033179;28;20083;-73
2021/05/26 02:34:41;;;;;;;8.82;3.20;;;;;;;14.61;100.00;100282.97;5033924;28;20049;-73
2021/05/26 02:37:07;;;;;;;5.60;3.10;;;;;;;14.91;100.00;100322.28;5033005;28;20048;-73
2021/05/26 02:39:33;;;;;;;6.72;3.65;;;;;;;15.07;100.00;100325.06;5033853;28;20456;-73
2021/05/26 02:41:59;;;;;;;7.15;3.50;;;;;;;14.97;100.00;100295.28;5033856;28;20082;-73
2021/05/26 02:44:25;;;;;;;7.72;2.78;;;;;;;14.96;100.00;100317.41;5032620;28;20399;-73
2021/05/26 02:46:50;;;;;;;5.75;3.65;;;;;;;14.74;100.00;100301.03;5033123;28;20113;-73
2021/05/26 02:49:16;;;;;;;6.00;3.58;;;;;;;14.95;100.00;100340.31;5033803;28;20064;-73
2021/05/26 02:51:42;;;;;;;7.70;3.70;;;;;;;15.05;100.00;100343.69;5034034;28;20035;-74
2021/05/26 02:54:08;;;;;;;7.80;3.40;;;;;;;14.77;100.00;100307.81;5033708;28;20033;-73
2021/05/26 02:56:35;;;;;;;8.88;3.80;;;;;;;15.00;100.00;100345.97;5033597;28;20034;-73
2021/05/26 02:59:03;;;;;;;9.70;4.28;;;;;;;14.73;100.00;100309.94;5033303;28;20037;-73
2021/05/26 03:01:29;;;;;;;11.43;3.63;;;;;;;14.81;100.00;100340.84;5032118;28;20033;-75
2021/05/26 03:03:55;;;;;;;7.38;3.72;;;;;;;14.70;100.00;100349.81;5032397;28;20173;-73
2021/05/26 03:06:21;;;;;;;9.00;4.22;;;;;;;14.64;100.00;100353.03;5033474;28;20110;-74
2021/05/26 03:08:46;;;;;;;10.38;4.13;;;;;;;14.59;100.00;100352.69;5032555;28;20029;-74
2021/05/26 03:11:12;;;;;;;9.15;3.70;;;;;;;14.54;100.00;100344.38;5031998;28;20040;-74
2021/05/26 03:13:37;;;;;;;9.73;3.80;;;;;;;14.41;100.00;100345.53;5033095;28;20021;-73
2021/05/26 03:16:03;;;;;;;11.90;4.90;;;;;;;14.48;100.00;100351.06;5033429;28;20032;-74
2021/05/26 03:18:29;;;;;;;9.27;3.63;;;;;;;14.48;100.00;100318.56;5033252;28;20024;-73
2021/05/26 03:20:55;;;;;;;5.18;3.25;;;;;;;14.49;100.00;100312.31;5033312;28;20175;-73
2021/05/26 03:23:21;;;;;;;7.75;4.00;;;;;;;14.51;100.00;100313.88;5032089;28;20158;-74
2021/05/26 03:25:47;;;;;;;6.63;3.90;;;;;;;14.70;100.00;100323.44;5031565;28;20644;-73
2021/05/26 03:28:15;;;;;;;13.20;3.53;;;;;;;15.07;100.00;100356.72;5031677;28;20086;-73
2021/05/26 03:30:41;;;;;;;10.07;4.28;;;;;;;14.87;100.00;100325.22;5031653;28;20033;-73
2021/05/26 03:33:07;;;;;;;7.60;3.92;;;;;;;14.93;100.00;100359.91;5031682;28;20033;-73
2021/05/26 03:35:33;;;;;;;8.68;4.32;;;;;;;14.84;100.00;100362.47;5031673;28;20079;-74
2021/05/26 03:37:58;;;;;;;8.50;3.53;;;;;;;14.77;100.00;100369.31;5033170;28;20477;-73
2021/05/26 03:40:24;;;;;;;12.02;3.50;;;;;;;14.45;100.00;100345.25;5031106;28;20045;-73
2021/05/26 03:42:50;;;;;;;7.07;3.72;;;;;;;14.52;100.00;100368.25;5031464;28;20029;-73
2021/05/26 03:45:16;;;;;;;9.98;3.63;;;;;;;14.58;100.00;100378.22;5032816;28;20032;-73
2021/05/26 03:47:42;;;;;;;13.43;4.03;;;;;;;14.56;100.00;100385.44;5030379;28;20021;-74
2021/05/26 03:50:13;;;;;;;13.57;4.10;;;;;;;14.58;100.00;100372.94;5032033;28;20034;-74
2021/05/26 03:52:47;;;;;;;12.43;4.15;;;;;;;14.83;100.00;100378.47;5029603;28;20524;-74
2021/05/26 03:55:15;;;;;;;43.10;5.75;;;;;;;15.02;100.00;100372.22;5030683;28;20558;-72
2021/05/26 03:57:40;;;;;;;10.95;3.70;;;;;;;15.07;100.00;100365.47;5031897;28;20488;-75
2021/05/26 04:00:08;;;;;;;8.10;3.80;;;;;;;15.30;100.00;100376.41;5031744;28;20033;-74
2021/05/26 04:02:35;;;;;;;24.08;4.88;;;;;;;15.48;100.00;100379.00;5031696;28;20021;-74
2021/05/26 04:05:01;;;;;;;11.40;4.30;;;;;;;15.38;100.00;100349.22;5031834;28;20026;-73
2021/05/26 04:07:27;;;;;;;9.27;4.57;;;;;;;15.69;100.00;100373.41;5031316;28;20021;-74
2021/05/26 04:09:57;;;;;;;14.20;4.70;;;;;;;15.80;100.00;100388.97;5031936;28;20071;-74
2021/05/26 04:12:25;;;;;;;10.52;4.32;;;;;;;15.92;100.00;100394.00;5031887;28;20108;-74
2021/05/26 04:14:54;;;;;;;9.77;4.28;;;;;;;15.92;100.00;100392.16;5030690;28;20112;-75
2021/05/26 04:17:19;;;;;;;14.07;3.93;;;;;;;16.00;100.00;100364.97;5030216;28;20033;-75
2021/05/26 04:19:45;;;;;;;8.18;4.38;;;;;;;16.44;100.00;100394.72;5031373;28;20412;-74
2021/05/26 04:22:11;;;;;;;8.13;4.07;;;;;;;16.55;100.00;100398.88;5032006;28;20061;-75
2021/05/26 04:24:36;;;;;;;7.93;4.47;;;;;;;16.78;100.00;100408.91;5031840;28;20049;-75
2021/05/26 04:27:02;;;;;;;9.18;4.40;;;;;;;16.93;100.00;100399.31;5031853;28;20025;-75
2021/05/26 04:29:28;;;;;;;11.93;4.40;;;;;;;17.08;100.00;100413.56;5031860;28;20029;-75
2021/05/26 04:31:56;;;;;;;19.88;4.65;;;;;;;17.30;100.00;100404.13;5029722;28;20061;-75
2021/05/26 04:34:22;;;;;;;17.83;5.18;;;;;;;17.26;100.00;100384.28;5031178;28;20030;-75
2021/05/26 04:36:47;;;;;;;9.57;4.45;;;;;;;17.64;100.00;100414.53;5029557;28;20111;-74
2021/05/26 04:39:13;;;;;;;15.35;5.05;;;;;;;17.77;100.00;100407.94;5029816;28;20416;-72
2021/05/26 04:41:38;;;;;;;9.63;4.82;;;;;;;17.91;100.00;100415.19;5030610;28;20017;-74
2021/05/26 04:44:04;;;;;;;11.05;4.90;;;;;;;18.00;100.00;100416.00;5029702;28;20029;-73
2021/05/26 04:46:30;;;;;;;27.92;5.65;;;;;;;18.24;100.00;100420.41;5030812;28;20520;-74
2021/05/26 04:48:55;;;;;;;13.27;4.70;;;;;;;18.18;100.00;100385.59;5030329;28;20036;-73
2021/05/26 04:51:21;;;;;;;7.90;4.80;;;;;;;18.56;100.00;100414.94;5031290;28;20025;-75
2021/05/26 04:53:46;;;;;;;9.65;4.63;;;;;;;18.67;100.00;100421.69;5031941;28;20455;-75
2021/05/26 04:56:12;;;;;;;12.85;4.15;;;;;;;18.84;100.00;100406.53;5031400;28;20029;-76
2021/05/26 04:58:37;;;;;;;8.82;3.70;;;;;;;18.82;100.00;100388.09;5031828;28;20040;-72
2021/05/26 05:01:03;;;;;;;7.78;3.60;;;;;;;19.03;100.00;100387.44;5034413;28;20606;-75
2021/05/26 05:03:28;;;;;;;6.22;3.55;;;;;;;19.23;100.00;100386.97;5035732;28;20037;-75
2021/05/26 05:05:54;;;;;;;10.82;3.97;;;;;;;19.21;100.00;100391.66;5034683;28;20086;-74
2021/05/26 05:08:19;;;;;;;10.02;4.57;;;;;;;19.33;100.00;100382.22;5033708;28;20044;-75
2021/05/26 05:10:45;;;;;;;10.88;4.30;;;;;;;19.79;100.00;100422.03;5035204;28;20420;-75
2021/05/26 05:13:10;;;;;;;7.65;3.55;;;;;;;19.78;100.00;100385.81;5034770;28;20030;-75
2021/05/26 05:15:35;;;;;;;9.70;4.40;;;;;;;20.18;100.00;100423.59;5035331;28;20021;-71
2021/05/26 05:18:01;;;;;;;11.57;5.10;;;;;;;20.10;100.00;100386.47;5035085;28;20042;-74
2021/05/26 05:20:26;;;;;;;8.88;4.60;;;;;;;20.55;100.00;100420.00;5034621;28;20112;-76
2021/05/26 05:22:54;;;;;;;9.00;3.78;;;;;;;20.59;100.00;100388.53;5035061;28;20108;-75
2021/05/26 05:25:19;;;;;;;13.35;4.03;;;;;;;20.79;100.00;100424.19;5033406;28;20427;-76
2021/05/26 05:27:45;;;;;;;9.70;4.00;;;;;;;20.68;100.00;100414.81;5034703;28;20109;-76
2021/05/26 05:30:11;;;;;;;11.00;3.85;;;;;;;19.77;100.00;100384.97;5034703;28;20033;-77
2021/05/26 05:32:37;;;;;;;8.68;3.83;;;;;;;19.70;100.00;100423.13;5035145;28;20025;-75
2021/05/26 05:35:04;;;;;;;21.17;11.20;;;;;;;19.83;100.00;100419.84;5034622;28;20061;-76
2021/05/26 05:37:29;;;;;;;12.52;5.50;;;;;;;20.23;100.00;100415.91;5034486;28;20026;-75
2021/05/26 05:39:55;;;;;;;13.57;5.35;;;;;;;20.07;100.00;100410.75;5035170;28;20116;-75
2021/05/26 05:42:20;;;;;;;14.88;5.20;;;;;;;19.84;100.00;100385.06;5034495;28;20028;-76
2021/05/26 05:44:47;;;;;;;13.05;4.63;;;;;;;19.66;100.00;100380.13;5034821;28;20117;-75
2021/05/26 05:47:13;;;;;;;13.70;5.13;;;;;;;19.61;100.00;100392.25;5032820;28;20037;-73
2021/05/26 05:49:39;;;;;;;10.45;4.43;;;;;;;19.69;100.00;100392.22;5034039;28;20508;-74
2021/05/26 05:52:08;;;;;;;10.82;4.50;;;;;;;19.78;100.00;100388.50;5032811;28;20029;-75
2021/05/26 05:54:33;;;;;;;6.18;3.58;;;;;;;20.26;100.00;100402.22;5031554;28;20030;-74
2021/05/26 05:56:59;;;;;;;13.05;3.88;;;;;;;20.16;100.00;100385.72;5031610;28;20109;-70
2021/05/26 05:59:24;;;;;;;13.98;3.60;;;;;;;20.57;100.00;100394.03;5031733;28;20028;-75
2021/05/26 06:01:50;;;;;;;9.00;3.67;;;;;;;20.74;100.00;100367.97;5031428;28;20033;-72
2021/05/26 06:04:15;;;;;;;10.27;3.50;;;;;;;21.04;100.00;100371.34;5032080;28;20112;-73
2021/05/26 06:06:41;;;;;;;13.38;3.50;;;;;;;21.01;100.00;100393.03;5032488;28;20029;-73
2021/05/26 06:09:06;;;;;;;12.77;4.55;;;;;;;21.31;100.00;100385.72;5034470;28;20548;-74
2021/05/26 06:11:35;;;;;;;15.43;4.10;;;;;;;21.77;100.00;100395.09;5034264;28;20076;-75
2021/05/26 06:14:04;;;;;;;10.80;4.80;;;;;;;21.78;100.00;100397.56;5034225;28;20033;-74
2021/05/26 06:16:37;;;;;;;12.32;4.20;;;;;;;21.90;95.81;100396.03;5033231;28;20507;-75
2021/05/26 06:19:04;;;;;;;9.98;4.70;;;;;;;22.06;95.58;100380.69;5034145;28;20030;-75
2021/05/26 06:21:31;;;;;;;11.88;4.45;;;;;;;22.71;98.03;100397.19;5034384;28;20029;-75
2021/05/26 06:23:57;;;;;;;10.32;3.60;;;;;;;23.05;88.20;100402.44;5032676;28;20382;-74
2021/05/26 06:26:23;;;;;;;8.60;4.07;;;;;;;23.36;83.61;100395.66;5034383;28;20135;-76
2021/05/26 06:28:49;;;;;;;10.32;3.80;;;;;;;23.62;81.24;100394.78;5034146;28;20030;-76
2021/05/26 06:31:20;;;;;;;5.93;3.30;;;;;;;23.73;78.04;100385.38;5034572;28;20071;-77
2021/05/26 06:33:45;;;;;;;12.70;3.25;;;;;;;24.03;74.86;100402.59;5033972;28;20033;-76
2021/05/26 06:36:11;;;;;;;14.60;3.15;;;;;;;24.20;72.57;100389.56;5034089;28;20030;-76
2021/05/26 06:38:38;;;;;;;6.05;2.75;;;;;;;24.58;71.58;100402.19;5034303;28;20120;-77
2021/05/26 06:41:04;;;;;;;23.33;4.60;;;;;;;24.76;71.77;100403.31;5033990;28;20512;-76
2021/05/26 06:43:30;;;;;;;9.60;2.70;;;;;;;24.81;71.41;100371.34;5033803;28;20033;-77
2021/05/26 06:45:56;;;;;;;10.55;2.83;;;;;;;24.94;69.48;100380.13;5033965;28;20029;-77
2021/05/26 06:48:22;;;;;;;9.40;3.00;;;;;;;25.34;68.69;100397.75;5033776;28;20030;-76
2021/05/26 06:50:47;;;;;;;7.15;2.58;;;;;;;25.44;66.90;100373.94;5034077;28;20044;-78
2021/05/26 06:53:13;;;;;;;6.53;2.50;;;;;;;25.70;66.39;100374.75;5033792;28;20473;-78
2021/05/26 06:55:38;;;;;;;6.95;2.83;;;;;;;25.81;60.63;100398.19;5033719;28;20018;-77
2021/05/26 06:58:04;;;;;;;13.20;3.15;;;;;;;26.01;53.17;100404.16;5033619;28;20041;-77
2021/05/26 07:00:30;;;;;;;8.63;2.15;;;;;;;25.89;51.82;100379.94;5033292;28;20032;-77
2021/05/26 07:02:56;;;;;;;10.98;5.53;;;;;;;25.99;49.25;100374.03;5033872;28;20029;-76
2021/05/26 07:05:22;;;;;;;11.88;2.55;;;;;;;26.17;47.52;100378.56;5033505;28;20044;-76
2021/05/26 07:07:48;;;;;;;6.53;2.33;;;;;;;26.45;46.21;100404.84;5033139;28;20532;-77
2021/05/26 07:10:15;;;;;;;8.85;2.20;;;;;;;26.21;44.90;100371.69;5033309;28;20366;-78
2021/05/26 07:12:41;;;;;;;5.63;2.10;;;;;;;26.64;48.87;100400.31;5033339;28;20026;-75
2021/05/26 07:15:07;;;;;;;9.65;2.30;;;;;;;26.29;46.52;100389.34;5033987;28;20088;-75
2021/05/26 07:17:32;;;;;;;7.78;2.47;;;;;;;26.52;49.25;100394.06;5033685;28;20052;-76
2021/05/26 07:19:59;;;;;;;9.38;2.17;;;;;;;26.48;51.22;100363.31;5033498;28;20028;-76
2021/05/26 07:22:24;;;;;;;5.72;2.13;;;;;;;26.74;50.58;100365.63;5033000;28;20454;-76
2021/05/26 07:24:50;;;;;;;9.73;2.75;;;;;;;26.90;49.42;100368.69;5033208;28;20108;-76
2021/05/26 07:27:15;;;;;;;7.45;2.50;;;;;;;26.93;50.59;100330.59;5032740;28;20030;-76
2021/05/26 07:29:41;;;;;;;16.30;3.53;;;;;;;27.45;50.41;100390.78;5032828;28;20067;-76
2021/05/26 07:32:06;;;;;;;18.88;4.20;;;;;;;27.59;51.09;100361.75;5033184;28;20109;-76
2021/05/26 07:34:32;;;;;;;18.55;4.68;;;;;;;27.70;50.98;100373.56;5032827;28;20397;-76
2021/05/26 07:36:57;;;;;;;21.58;4.03;;;;;;;28.02;53.55;100366.75;5032834;28;20029;-76
2021/05/26 07:39:24;;;;;;;17.85;4.60;;;;;;;27.88;51.38;100376.16;5032959;28;20032;-76
2021/05/26 07:41:50;;;;;;;26.83;5.20;;;;;;;27.84;52.51;100369.59;5031478;28;20503;-76
2021/05/26 07:44:15;;;;;;;32.20;6.82;;;;;;;28.11;51.72;100377.16;5032787;28;20124;-76
2021/05/26 07:46:41;;;;;;;22.38;6.00;;;;;;;27.72;50.07;100353.44;5032785;28;20052;-78
2021/05/26 07:49:06;;;;;;;29.33;7.43;;;;;;;27.81;52.90;100356.63;5032674;28;20026;-76
2021/05/26 07:51:33;;;;;;;23.15;6.35;;;;;;;28.22;53.94;100379.81;5032666;28;20407;-76
2021/05/26 07:54:01;;;;;;;29.05;7.05;;;;;;;28.12;52.03;100354.56;5032634;28;20025;-76
2021/05/26 07:56:27;;;;;;;23.15;5.25;;;;;;;28.32;52.72;100378.41;5031278;28;20096;-76
2021/05/26 07:58:53;;;;;;;15.48;4.63;;;;;;;28.38;52.79;100380.09;5032551;28;20378;-76
2021/05/26 08:01:19;;;;;;;12.93;4.40;;;;;;;28.54;50.83;100357.00;5032335;28;20032;-76
2021/05/26 08:03:44;;;;;;;15.50;4.80;;;;;;;28.56;50.80;100354.88;5032332;28;20030;-76
2021/05/26 08:06:12;;;;;;;11.95;3.83;;;;;;;28.71;51.10;100371.31;5032586;28;20017;-75
2021/05/26 08:08:37;;;;;;;13.68;3.80;;;;;;;28.79;52.35;100356.59;5032099;28;20060;-76
2021/05/26 08:11:04;;;;;;;10.90;2.83;;;;;;;28.89;49.34;100351.38;5032427;28;20026;-76
2021/05/26 08:13:30;;;;;;;14.50;3.88;;;;;;;29.21;48.92;100373.25;5032366;28;20033;-77
2021/05/26 08:15:55;;;;;;;12.68;4.13;;;;;;;29.50;48.35;100375.84;5032576;28;20030;-77
2021/05/26 08:18:21;;;;;;;18.27;3.42;;;;;;;29.52;47.23;100369.13;5032387;28;20140;-77
2021/05/26 08:20:48;;;;;;;20.10;3.78;;;;;;;29.56;49.16;100358.66;5032133;28;20408;-76
2021/05/26 08:23:14;;;;;;;29.38;25.27;;;;;;;29.88;48.41;100373.16;5032431;28;20095;-76
2021/05/26 08:25:40;;;;;;;10.70;2.38;;;;;;;29.45;47.63;100319.09;5030766;28;20111;-75
2021/05/26 08:28:06;;;;;;;6.65;2.47;;;;;;;29.55;46.64;100373.22;5032170;28;20026;-78
2021/05/26 08:30:32;;;;;;;17.38;2.80;;;;;;;29.56;49.39;100345.16;5032247;28;20112;-77
2021/05/26 08:32:58;;;;;;;8.05;2.22;;;;;;;30.00;47.69;100364.09;5032411;28;20036;-77
2021/05/26 08:35:23;;;;;;;8.63;2.63;;;;;;;29.88;45.35;100351.56;5033804;28;20025;-77
2021/05/26 08:37:49;;;;;;;9.38;2.25;;;;;;;29.34;45.86;100372.13;5036185;28;20480;-78
2021/05/26 08:40:16;;;;;;;8.20;2.40;;;;;;;29.10;47.14;100361.50;5036147;28;20116;-81
2021/05/26 08:42:45;;;;;;;10.05;2.38;;;;;;;28.41;49.53;100353.53;5036189;28;20061;-78
2021/05/26 08:45:12;;;;;;;6.03;2.25;;;;;;;29.05;47.32;100349.78;5036087;28;20524;-77
2021/05/26 08:47:42;;;;;;;6.90;2.53;;;;;;;29.41;46.39;100346.56;5034908;28;20030;-76
2021/05/26 08:50:08;;;;;;;32.65;24.95;;;;;;;29.64;46.15;100336.66;5036011;28;20033;-76
2021/05/26 08:52:34;;;;;;;6.03;2.25;;;;;;;29.24;47.02;100328.78;5035922;28;20025;-76
2021/05/26 08:55:01;;;;;;;9.38;2.00;;;;;;;29.70;47.23;100342.94;5036349;28;20393;-76
2021/05/26 08:57:26;;;;;;;6.35;2.15;;;;;;;29.73;45.56;100324.34;5035857;28;20036;-79
2021/05/26 08:59:52;;;;;;;3.20;1.75;;;;;;;27.97;49.25;100320.84;5036001;28;20026;-82
2021/05/26 09:02:17;;;;;;;6.65;2.13;;;;;;;28.10;48.81;100340.50;5035849;28;20025;-76
2021/05/26 09:04:43;;;;;;;8.02;1.90;;;;;;;28.68;49.42;100316.00;5035763;28;20112;-77
2021/05/26 09:07:11;;;;;;;4.95;2.03;;;;;;;29.05;47.33;100336.31;5035727;28;20455;-74
2021/05/26 09:09:54;;;;;;;9.77;2.40;;;;;;;28.61;45.67;100345.00;5035298;28;20025;-79
2021/05/26 09:12:43;;;;;;;5.20;2.42;;;;;;;28.92;47.89;100340.97;5035921;28;20048;-77
2021/05/26 09:15:15;;;;;;;7.85;2.28;;;;;;;28.36;48.04;100348.03;5035720;28;20033;-76
2021/05/26 09:17:42;;;;;;;4.38;2.03;;;;;;;28.97;48.32;100339.41;5035485;28;20036;-75
2021/05/26 09:20:13;;;;;;;4.60;2.00;;;;;;;29.35;46.49;100341.34;5035249;28;20091;-81
2021/05/26 09:22:41;;;;;;;5.60;2.00;;;;;;;29.63;43.95;100340.41;5035452;28;20472;-80
2021/05/26 09:25:10;;;;;;;6.15;2.28;;;;;;;29.36;44.90;100338.41;5050880;28;20053;-80
2021/05/26 09:27:36;;;;;;;7.03;2.00;;;;;;;29.57;45.83;100339.50;5035389;28;20018;-81
2021/05/26 09:30:02;;;;;;;3.47;1.98;;;;;;;29.31;45.14;100313.22;5035457;28;20032;-80
2021/05/26 09:32:30;;;;;;;7.15;2.38;;;;;;;29.60;45.04;100339.06;5034963;28;20120;-81
2021/05/26 09:34:58;;;;;;;6.03;2.30;;;;;;;29.42;46.28;100310.41;5035297;28;20025;-79
2021/05/26 09:37:32;;;;;;;3.97;1.88;;;;;;;29.07;42.57;100334.19;5035157;28;20040;-78
2021/05/26 09:40:10;;;;;;;4.53;2.20;;;;;;;29.03;40.23;100301.50;5035164;28;20022;-79
2021/05/26 09:42:37;;;;;;;4.63;2.70;;;;;;;29.08;42.31;100303.44;5035234;28;20087;-79
2021/05/26 09:45:18;;;;;;;3.33;2.22;;;;;;;29.06;42.97;100332.53;5035569;28;20025;-78
2021/05/26 09:47:47;;;;;;;5.13;2.10;;;;;;;29.37;42.75;100331.94;5033504;28;20035;-78
2021/05/26 09:50:26;;;;;;;3.03;1.55;;;;;;;29.50;41.86;100305.66;5033712;28;20400;-77
2021/05/26 09:52:58;;;;;;;5.70;1.95;;;;;;;29.70;39.96;100305.97;5033876;28;20478;-80
2021/05/26 09:55:44;;;;;;;5.05;2.30;;;;;;;29.95;41.71;100329.75;5034801;28;20071;-78
2021/05/26 09:58:11;;;;;;;6.55;1.77;;;;;;;29.05;42.95;100309.34;5035058;28;20030;-80
2021/05/26 10:00:38;;;;;;;5.75;2.28;;;;;;;28.52;42.85;100318.66;5034983;28;20025;-79
2021/05/26 10:03:04;;;;;;;3.28;2.20;;;;;;;28.65;42.47;100307.56;5033502;28;20058;-78
2021/05/26 10:05:30;;;;;;;4.43;2.47;;;;;;;28.89;40.63;100301.00;5034696;28;20029;-77
2021/05/26 10:08:00;;;;;;;9.25;2.80;;;;;;;29.13;43.40;100303.53;5034615;28;20500;-79
2021/05/26 10:10:29;;;;;;;4.55;2.53;;;;;;;29.58;41.72;100314.13;5033368;28;20021;-80
2021/05/26 10:13:04;;;;;;;8.10;2.83;;;;;;;29.20;40.34;100279.88;5034550;28;20026;-77
2021/05/26 10:15:31;;;;;;;4.32;2.08;;;;;;;29.69;39.96;100323.22;5034594;28;20026;-80
2021/05/26 10:17:59;;;;;;;6.38;3.28;;;;;;;29.38;41.67;100314.69;5033122;28;20125;-79
2021/05/26 10:20:27;;;;;;;5.90;2.63;;;;;;;29.70;41.41;100284.38;5033145;28;20030;-80
2021/05/26 10:22:55;;;;;;;6.55;2.53;;;;;;;29.85;40.52;100303.44;5034545;28;20038;-78
2021/05/26 10:25:21;;;;;;;5.97;2.97;;;;;;;29.68;41.09;100310.78;5034149;28;20041;-79
2021/05/26 10:27:54;;;;;;;5.72;3.47;;;;;;;29.45;41.92;100297.50;5034247;28;20061;-77
2021/05/26 10:30:27;;;;;;;4.72;3.10;;;;;;;29.62;42.57;100285.59;5034319;28;20033;-79
2021/05/26 10:32:59;;;;;;;6.55;3.45;;;;;;;29.81;42.23;100291.50;5034179;28;20504;-80
2021/05/26 10:35:26;;;;;;;6.05;2.95;;;;;;;29.55;39.81;100265.22;5032887;28;20029;-79
2021/05/26 10:38:10;;;;;;;6.72;3.28;;;;;;;29.59;41.22;100263.66;5032823;28;20029;-80
2021/05/26 10:40:38;;;;;;;4.45;3.03;;;;;;;29.54;39.76;100248.22;5034126;28;20029;-79
2021/05/26 10:43:16;;;;;;;4.05;3.45;;;;;;;29.40;42.37;100284.75;5032636;28;20021;-78
2021/05/26 10:45:43;;;;;;;5.00;3.20;;;;;;;29.72;41.59;100270.59;5033862;28;20026;-81
2021/05/26 10:48:09;;;;;;;5.28;3.05;;;;;;;29.63;40.88;100265.66;5034039;28;20125;-80
2021/05/26 10:50:44;;;;;;;4.28;2.35;;;;;;;29.79;41.55;100274.72;5032815;28;20040;-81
2021/05/26 10:53:10;;;;;;;4.22;3.00;;;;;;;29.73;41.93;100273.03;5033932;28;20478;-78
2021/05/26 10:55:39;;;;;;;5.40;3.22;;;;;;;28.99;41.93;100257.16;5032436;28;20033;-77
2021/05/26 10:58:24;;;;;;;9.57;3.53;;;;;;;29.01;44.10;100254.25;5032999;28;20078;-80
2021/05/26 11:00:55;;;;;;;5.07;3.50;;;;;;;29.44;43.32;100268.88;5032192;28;20125;-79
2021/05/26 11:03:24;;;;;;;8.82;3.72;;;;;;;29.46;45.31;100269.44;5033670;28;20025;-77
2021/05/26 11:06:25;;;;;;;8.32;3.90;;;;;;;29.67;44.40;100259.72;5033571;28;20060;-78
2021/05/26 11:08:55;;;;;;;6.97;4.10;;;;;;;29.52;41.85;100233.34;5033390;28;20083;-78
2021/05/26 11:11:29;;;;;;;6.03;3.53;;;;;;;29.86;42.41;100261.84;5032211;28;20040;-78
2021/05/26 11:14:24;;;;;;;7.05;3.58;;;;;;;29.55;42.36;100259.81;5032021;28;20032;-76
2021/05/26 11:16:50;;;;;;;6.30;3.72;;;;;;;29.61;42.35;100253.47;5033613;28;20448;-77